Time;durP1;ratioP1;P1;durP2;ratioP2;P2;SDS_P1;SDS_P2;PMS_P1;PMS_P2;Temp;Humidity;BMP_temperature;BMP_pressure;BME280_temperature;BME280_humidity;BME280_pressure;Samples;Min_cycle;Max_cycle;Signal;HPM_P1;HPM_P2
2023/04/08 00:01:23;;;;;;;18.55;7.45;;;;;;;;;;5107622;28;20041;-81
2023/04/08 00:03:55;;;;;;;22.92;8.73;;;;;;;;;;5109451;28;20119;-81
2023/04/08 00:06:28;;;;;;;13.40;6.85;;;;;;;;;;5084523;28;20135;-81
2023/04/08 00:08:55;;;;;;;18.67;7.43;;;;;;;;;;5108940;28;20031;-81
2023/04/08 00:11:23;;;;;;;15.82;6.65;;;;;;;;;;5109937;28;20032;-81
2023/04/08 00:13:51;;;;;;;15.35;6.72;;;;;;;;;;5103738;28;20122;-81
2023/04/08 00:16:19;;;;;;;15.23;6.85;;;;;;;;;;5112614;28;20448;-81
2023/04/08 00:18:48;;;;;;;15.73;7.15;;;;;;;;;;5077129;28;20051;-81
2023/04/08 00:21:19;;;;;;;15.18;6.93;;;;;;;;;;5111811;27;20134;-81
2023/04/08 00:23:47;;;;;;;14.95;6.68;;;;;;;;;;5112778;28;20571;-81
2023/04/08 00:26:15;;;;;;;18.35;6.88;;;;;;;;;;5112346;28;20116;-81
2023/04/08 00:28:43;;;;;;;18.05;7.00;;;;;;;;;;5088913;28;20051;-81
2023/04/08 00:31:17;;;;;;;12.32;6.03;;;;;;;;;;5072141;27;20043;-81
2023/04/08 00:34:13;;;;;;;16.52;6.35;;;;;;;;;;5093066;28;20038;-81
2023/04/08 00:36:41;;;;;;;15.93;6.85;;;;;;;;;;5112013;27;20047;-81
2023/04/08 00:39:09;;;;;;;14.80;6.90;;;;;;;;;;5111518;28;20043;-81
2023/04/08 00:41:37;;;;;;;16.17;6.80;;;;;;;;;;5088821;28;20047;-81
2023/04/08 00:44:09;;;;;;;14.77;6.32;;;;;;;;;;5089703;28;20035;-81
2023/04/08 00:46:38;;;;;;;13.48;6.32;;;;;;;;;;5109727;28;20166;-81
2023/04/08 00:49:11;;;;;;;15.05;7.13;;;;;;;;;;5089885;28;20089;-81
2023/04/08 00:51:39;;;;;;;13.57;6.40;;;;;;;;;;5093696;28;20567;-81
2023/04/08 00:54:13;;;;;;;14.18;6.38;;;;;;;;;;5094295;28;20063;-81
2023/04/08 00:56:42;;;;;;;14.02;6.15;;;;;;;;;;5089491;28;20105;-81
2023/04/08 00:59:17;;;;;;;15.23;6.55;;;;;;;;;;5109187;28;20406;-81
2023/04/08 01:01:58;;;;;;;13.52;6.55;;;;;;;;;;5108641;27;20035;-81
2023/04/08 01:05:25;;;;;;;15.90;6.43;;;;;;;;;;5092416;28;20043;-81
2023/04/08 01:07:58;;;;;;;14.85;6.05;;;;;;;;;;5023920;28;20055;-81
2023/04/08 01:10:32;;;;;;;15.95;7.13;;;;;;;;;;5047301;28;20496;-81
2023/04/08 01:13:05;;;;;;;15.25;6.40;;;;;;;;;;5041165;28;20137;-81
2023/04/08 01:15:40;;;;;;;19.83;6.18;;;;;;;;;;5040441;28;20174;-81
2023/04/08 01:18:11;;;;;;;14.40;6.82;;;;;;;;;;5045974;28;20095;-81
2023/04/08 01:21:07;;;;;;;15.32;6.78;;;;;;;;;;5039802;28;20045;-82
2023/04/08 01:23:56;;;;;;;16.13;6.47;;;;;;;;;;5040004;28;20073;-81
2023/04/08 01:26:30;;;;;;;15.40;6.55;;;;;;;;;;5024873;28;20544;-81
2023/04/08 01:29:00;;;;;;;13.85;6.18;;;;;;;;;;5043150;28;20048;-81
2023/04/08 01:31:35;;;;;;;14.70;6.68;;;;;;;;;;5040608;28;20060;-81
2023/04/08 01:34:10;;;;;;;14.02;6.40;;;;;;;;;;5031607;28;20487;-81
2023/04/08 01:37:03;;;;;;;14.00;5.75;;;;;;;;;;5038084;28;20049;-81
2023/04/08 01:39:56;;;;;;;18.33;6.63;;;;;;;;;;5041082;28;20497;-81
2023/04/08 01:42:49;;;;;;;14.75;6.47;;;;;;;;;;5025994;28;20047;-81
2023/04/08 01:45:22;;;;;;;14.27;6.28;;;;;;;;;;5102979;28;20055;-81
2023/04/08 01:47:52;;;;;;;14.20;6.50;;;;;;;;;;5111804;28;20043;-81
2023/04/08 01:50:22;;;;;;;11.77;6.25;;;;;;;;;;5106816;28;20085;-81
2023/04/08 01:52:52;;;;;;;11.98;6.28;;;;;;;;;;5104074;28;20059;-81
2023/04/08 01:55:21;;;;;;;12.50;5.50;;;;;;;;;;5100661;28;20043;-81
2023/04/08 01:57:58;;;;;;;13.00;6.30;;;;;;;;;;5100425;28;20092;-81
2023/04/08 02:00:30;;;;;;;13.77;6.05;;;;;;;;;;5108543;27;20563;-81
2023/04/08 02:02:59;;;;;;;13.13;5.72;;;;;;;;;;5107277;28;20043;-81
2023/04/08 02:05:27;;;;;;;18.30;6.53;;;;;;;;;;5088045;28;20044;-81
2023/04/08 02:07:55;;;;;;;12.50;5.47;;;;;;;;;;5091306;28;20445;-82
2023/04/08 02:10:23;;;;;;;15.88;6.05;;;;;;;;;;5109415;28;20036;-82
2023/04/08 02:12:55;;;;;;;11.65;6.00;;;;;;;;;;5070708;28;20048;-82
2023/04/08 02:15:26;;;;;;;13.65;5.57;;;;;;;;;;5085920;28;20509;-82
2023/04/08 02:18:02;;;;;;;12.38;6.07;;;;;;;;;;5110607;28;20046;-81
2023/04/08 02:20:46;;;;;;;11.25;5.57;;;;;;;;;;5101886;27;20044;-81
2023/04/08 02:23:19;;;;;;;13.60;6.18;;;;;;;;;;5081278;28;20071;-82
2023/04/08 02:25:55;;;;;;;11.75;6.30;;;;;;;;;;5105624;28;20038;-82
2023/04/08 02:28:30;;;;;;;11.27;5.45;;;;;;;;;;5098104;28;20039;-82
2023/04/08 02:30:59;;;;;;;12.32;5.45;;;;;;;;;;5102048;27;20621;-82
2023/04/08 02:33:35;;;;;;;10.80;5.38;;;;;;;;;;5107149;28;20085;-82
2023/04/08 02:36:04;;;;;;;11.65;5.00;;;;;;;;;;5107903;28;20138;-82
2023/04/08 02:38:59;;;;;;;13.15;5.55;;;;;;;;;;5084096;28;20747;-82
2023/04/08 02:41:29;;;;;;;12.70;5.28;;;;;;;;;;5100078;27;20083;-82
2023/04/08 02:43:57;;;;;;;10.93;5.47;;;;;;;;;;5109323;28;20112;-82
2023/04/08 02:47:15;;;;;;;14.05;5.68;;;;;;;;;;5109156;28;20035;-82
2023/04/08 02:49:43;;;;;;;13.00;6.53;;;;;;;;;;5110259;28;20452;-82
2023/04/08 02:52:11;;;;;;;13.00;6.03;;;;;;;;;;5084735;28;20047;-82
2023/04/08 02:54:43;;;;;;;13.68;6.63;;;;;;;;;;5075298;28;20032;-82
2023/04/08 02:57:36;;;;;;;16.27;6.68;;;;;;;;;;5108055;28;20108;-82
2023/04/08 03:00:27;;;;;;;13.95;6.65;;;;;;;;;;5090750;28;20716;-82
2023/04/08 03:02:55;;;;;;;18.10;7.47;;;;;;;;;;5089609;28;20040;-82
2023/04/08 03:05:23;;;;;;;19.10;7.88;;;;;;;;;;5107456;28;20032;-82
2023/04/08 03:07:51;;;;;;;17.88;7.10;;;;;;;;;;5109071;28;20513;-82
2023/04/08 03:10:19;;;;;;;17.08;7.47;;;;;;;;;;5109689;28;20158;-82
2023/04/08 03:12:47;;;;;;;18.17;8.32;;;;;;;;;;5107925;27;20314;-82
2023/04/08 03:15:39;;;;;;;14.45;6.68;;;;;;;;;;5107647;28;20051;-82
2023/04/08 03:18:07;;;;;;;19.02;8.32;;;;;;;;;;5092225;28;20057;-82
2023/04/08 03:20:35;;;;;;;20.38;7.78;;;;;;;;;;5107162;28;20043;-82
2023/04/08 03:23:03;;;;;;;15.82;7.63;;;;;;;;;;5090613;28;20392;-82
2023/04/08 03:25:31;;;;;;;17.98;8.18;;;;;;;;;;5071776;28;20039;-82
2023/04/08 03:28:03;;;;;;;25.15;8.45;;;;;;;;;;5089952;28;20035;-82
2023/04/08 03:30:31;;;;;;;22.23;9.10;;;;;;;;;;5108598;28;20487;-82
2023/04/08 03:32:59;;;;;;;25.40;9.23;;;;;;;;;;5109103;28;20039;-82
2023/04/08 03:35:33;;;;;;;23.58;8.90;;;;;;;;;;5109523;28;20058;-82
2023/04/08 03:38:01;;;;;;;25.90;9.60;;;;;;;;;;5108043;28;20130;-82
2023/04/08 03:40:29;;;;;;;22.77;9.52;;;;;;;;;;5089911;28;20071;-82
2023/04/08 03:43:01;;;;;;;26.40;9.88;;;;;;;;;;5110135;28;20066;-82
2023/04/08 03:45:29;;;;;;;28.63;9.52;;;;;;;;;;5093109;28;20032;-82
2023/04/08 03:47:57;;;;;;;27.20;10.95;;;;;;;;;;5089481;28;20075;-82
2023/04/08 03:50:49;;;;;;;28.80;9.65;;;;;;;;;;5087237;28;20041;-82
2023/04/08 03:53:17;;;;;;;25.10;9.77;;;;;;;;;;5098307;27;20035;-82
2023/04/08 03:55:52;;;;;;;26.55;9.57;;;;;;;;;;5112782;28;21093;-82
2023/04/08 03:58:19;;;;;;;22.45;8.93;;;;;;;;;;5107520;28;20507;-82
2023/04/08 04:00:47;;;;;;;21.60;8.80;;;;;;;;;;5107045;28;20050;-82
2023/04/08 04:03:15;;;;;;;22.25;9.05;;;;;;;;;;5106983;27;20071;-82
2023/04/08 04:05:49;;;;;;;23.65;9.98;;;;;;;;;;5104913;28;20023;-82
2023/04/08 04:08:21;;;;;;;28.58;9.68;;;;;;;;;;5102363;27;20054;-82
2023/04/08 04:10:50;;;;;;;25.92;10.48;;;;;;;;;;5087752;27;20166;-82
2023/04/08 04:13:23;;;;;;;29.00;9.52;;;;;;;;;;5093145;28;20445;-82
2023/04/08 04:16:01;;;;;;;27.73;9.45;;;;;;;;;;5112457;27;20475;-81
2023/04/08 04:18:53;;;;;;;22.50;7.78;;;;;;;;;;5100766;28;20036;-82
2023/04/08 04:21:21;;;;;;;20.35;7.82;;;;;;;;;;5111357;28;20578;-82
2023/04/08 04:24:40;;;;;;;21.23;8.27;;;;;;;;;;5114351;27;20053;-82
2023/04/08 04:27:34;;;;;;;20.35;8.38;;;;;;;;;;5113471;27;20036;-82
2023/04/08 04:30:01;;;;;;;20.08;7.60;;;;;;;;;;5086838;27;20475;-82
2023/04/08 04:32:53;;;;;;;18.63;8.65;;;;;;;;;;5112573;27;20042;-82
2023/04/08 04:35:21;;;;;;;23.23;8.85;;;;;;;;;;5114112;27;20449;-82
2023/04/08 04:37:50;;;;;;;22.42;8.65;;;;;;;;;;5089989;28;20063;-82
2023/04/08 04:40:43;;;;;;;23.67;8.88;;;;;;;;;;5095610;28;20039;-82
2023/04/08 04:43:15;;;;;;;20.05;8.80;;;;;;;;;;5114142;27;20552;-82
2023/04/08 04:45:47;;;;;;;20.92;8.70;;;;;;;;;;5112464;27;20039;-82
2023/04/08 04:48:19;;;;;;;23.05;8.80;;;;;;;;;;5113674;27;20044;-82
2023/04/08 04:50:57;;;;;;;23.85;8.50;;;;;;;;;;5112844;27;20675;-82
2023/04/08 04:53:25;;;;;;;20.75;8.63;;;;;;;;;;5113129;27;20568;-82
2023/04/08 04:55:53;;;;;;;23.63;9.48;;;;;;;;;;5111844;27;20040;-82
2023/04/08 04:58:21;;;;;;;18.85;8.68;;;;;;;;;;5112358;27;20057;-82
2023/04/08 05:00:49;;;;;;;24.88;9.30;;;;;;;;;;5110210;27;20042;-82
2023/04/08 05:03:41;;;;;;;26.70;9.25;;;;;;;;;;5097378;27;20035;-81
2023/04/08 05:06:13;;;;;;;18.33;5.93;;;;;;;;;;5108490;27;20127;-82
2023/04/08 05:08:41;;;;;;;28.48;9.60;;;;;;;;;;5098812;28;20193;-82
2023/04/08 05:11:09;;;;;;;18.63;8.30;;;;;;;;;;5111378;27;20035;-82
2023/04/08 05:13:37;;;;;;;17.67;7.90;;;;;;;;;;5113862;27;20040;-82
2023/04/08 05:16:09;;;;;;;17.98;7.63;;;;;;;;;;5104538;28;20063;-82
2023/04/08 05:19:01;;;;;;;21.25;7.20;;;;;;;;;;5110262;27;20114;-82
2023/04/08 05:21:53;;;;;;;20.95;7.50;;;;;;;;;;5109194;28;20043;-82
2023/04/08 05:24:21;;;;;;;18.38;8.07;;;;;;;;;;5111888;27;20061;-82
2023/04/08 05:26:56;;;;;;;16.85;7.45;;;;;;;;;;5112710;27;20175;-82
2023/04/08 05:29:25;;;;;;;18.92;8.43;;;;;;;;;;5093119;28;20072;-81
2023/04/08 05:31:53;;;;;;;25.38;9.23;;;;;;;;;;5109126;27;20039;-82
2023/04/08 05:34:21;;;;;;;21.25;8.20;;;;;;;;;;5092837;28;20176;-82
2023/04/08 05:36:52;;;;;;;21.33;9.00;;;;;;;;;;5112501;27;20123;-82
2023/04/08 05:39:21;;;;;;;21.58;8.57;;;;;;;;;;5088704;28;20043;-82
2023/04/08 05:41:49;;;;;;;20.05;8.60;;;;;;;;;;5110328;27;20179;-82
2023/04/08 05:44:21;;;;;;;19.33;8.00;;;;;;;;;;5111224;27;20156;-82
2023/04/08 05:46:49;;;;;;;21.30;7.82;;;;;;;;;;5111189;27;20048;-82
2023/04/08 05:49:17;;;;;;;21.38;8.18;;;;;;;;;;5112000;27;20188;-82
2023/04/08 05:51:49;;;;;;;23.13;8.18;;;;;;;;;;5111508;27;20157;-82
2023/04/08 05:54:21;;;;;;;18.67;8.18;;;;;;;;;;5110393;27;20043;-82
2023/04/08 05:56:53;;;;;;;29.23;8.73;;;;;;;;;;5095228;28;20039;-82
2023/04/08 05:59:47;;;;;;;22.90;8.40;;;;;;;;;;5110863;27;20038;-82
2023/04/08 06:02:19;;;;;;;24.75;9.43;;;;;;;;;;5093831;28;20043;-82
2023/04/08 06:04:47;;;;;;;26.70;9.52;;;;;;;;;;5110713;27;20839;-82
2023/04/08 06:07:15;;;;;;;25.63;10.02;;;;;;;;;;5108700;27;20131;-82
2023/04/08 06:09:43;;;;;;;24.35;8.77;;;;;;;;;;5109440;27;20089;-82
2023/04/08 06:12:11;;;;;;;22.45;9.45;;;;;;;;;;5093284;28;20495;-82
2023/04/08 06:15:03;;;;;;;25.05;9.02;;;;;;;;;;5097892;27;20036;-82
2023/04/08 06:17:38;;;;;;;19.58;8.68;;;;;;;;;;5110953;28;20050;-82
2023/04/08 06:20:11;;;;;;;27.23;9.32;;;;;;;;;;5110677;27;20040;-81
2023/04/08 06:22:39;;;;;;;29.85;11.63;;;;;;;;;;5106569;27;20039;-81
2023/04/08 06:25:07;;;;;;;24.52;8.40;;;;;;;;;;5087423;28;20867;-83
2023/04/08 06:27:59;;;;;;;24.80;9.07;;;;;;;;;;5093068;28;20164;-82
2023/04/08 06:30:27;;;;;;;26.63;9.40;;;;;;;;;;5105149;28;20882;-81
2023/04/08 06:32:59;;;;;;;24.25;9.20;;;;;;;;;;5085569;28;20096;-82
2023/04/08 06:35:27;;;;;;;18.95;7.70;;;;;;;;;;5090141;27;20154;-81
2023/04/08 06:38:20;;;;;;;22.95;8.80;;;;;;;;;;5089459;28;20499;-81
2023/04/08 06:40:47;;;;;;;22.40;8.43;;;;;;;;;;5092133;28;20047;-81
2023/04/08 06:43:19;;;;;;;27.20;9.18;;;;;;;;;;5107682;27;20663;-81
2023/04/08 06:45:47;;;;;;;21.08;8.48;;;;;;;;;;5110092;28;20035;-81
2023/04/08 06:48:41;;;;;;;28.23;9.45;;;;;;;;;;5108238;28;20032;-81
2023/04/08 06:51:35;;;;;;;21.90;8.50;;;;;;;;;;5108199;27;20050;-82
2023/04/08 06:54:09;;;;;;;18.73;7.45;;;;;;;;;;5108841;28;20051;-81
2023/04/08 06:56:37;;;;;;;24.38;8.68;;;;;;;;;;5088850;28;20044;-82
2023/04/08 06:59:05;;;;;;;15.95;6.90;;;;;;;;;;5110424;27;20046;-82
2023/04/08 07:01:57;;;;;;;22.48;8.50;;;;;;;;;;5087616;28;20034;-81
2023/04/08 07:04:25;;;;;;;19.65;7.57;;;;;;;;;;5109837;28;20040;-81
2023/04/08 07:09:53;;;;;;;17.73;7.13;;;;;;;;;;5107933;28;20043;-81
2023/04/08 07:12:26;;;;;;;20.63;7.50;;;;;;;;;;5109430;28;20035;-82
2023/04/08 07:14:53;;;;;;;19.35;8.02;;;;;;;;;;5110235;28;20498;-81
2023/04/08 07:17:21;;;;;;;19.67;8.43;;;;;;;;;;5087160;28;20093;-81
2023/04/08 07:19:53;;;;;;;26.75;8.30;;;;;;;;;;5106280;28;20043;-81
2023/04/08 07:22:21;;;;;;;23.13;9.40;;;;;;;;;;5092926;28;20491;-81
2023/04/08 07:24:49;;;;;;;22.98;8.60;;;;;;;;;;5108388;28;20152;-81
2023/04/08 07:28:07;;;;;;;18.60;8.02;;;;;;;;;;5109797;28;20034;-82
2023/04/08 07:31:27;;;;;;;26.83;9.02;;;;;;;;;;5109911;28;20503;-82
2023/04/08 07:34:21;;;;;;;22.73;8.45;;;;;;;;;;5107910;28;20407;-81
2023/04/08 07:36:53;;;;;;;19.60;7.95;;;;;;;;;;5109135;28;20044;-81
2023/04/08 07:39:21;;;;;;;23.65;8.43;;;;;;;;;;5110521;28;20126;-82
2023/04/08 07:41:49;;;;;;;23.40;8.50;;;;;;;;;;5109448;28;20415;-82
2023/04/08 07:44:22;;;;;;;17.25;7.78;;;;;;;;;;5106597;28;20120;-82
2023/04/08 07:46:50;;;;;;;24.02;8.48;;;;;;;;;;5102882;28;20036;-81
2023/04/08 07:49:19;;;;;;;18.08;7.65;;;;;;;;;;5110480;28;20047;-82
2023/04/08 07:52:11;;;;;;;16.88;6.82;;;;;;;;;;5108704;28;20107;-81
2023/04/08 07:54:39;;;;;;;22.92;7.82;;;;;;;;;;5107118;28;20046;-81
2023/04/08 07:57:07;;;;;;;22.92;8.23;;;;;;;;;;5086003;28;20059;-81
2023/04/08 07:59:35;;;;;;;18.30;6.80;;;;;;;;;;5081383;28;20460;-82
2023/04/08 08:02:07;;;;;;;22.23;8.02;;;;;;;;;;5107237;28;20154;-82
2023/04/08 08:04:35;;;;;;;19.00;7.68;;;;;;;;;;5103843;28;20032;-82
2023/04/08 08:07:03;;;;;;;20.95;8.32;;;;;;;;;;5070748;28;20472;-82
2023/04/08 08:09:35;;;;;;;20.58;8.02;;;;;;;;;;5072408;28;20074;-82
2023/04/08 08:12:03;;;;;;;19.15;8.35;;;;;;;;;;5091207;28;20040;-82
2023/04/08 08:14:31;;;;;;;18.38;6.82;;;;;;;;;;5086873;28;20415;-82
2023/04/08 08:17:03;;;;;;;17.63;7.72;;;;;;;;;;5075182;28;20046;-81
2023/04/08 08:19:31;;;;;;;18.95;6.75;;;;;;;;;;5075786;28;20071;-82
2023/04/08 08:21:59;;;;;;;13.88;6.68;;;;;;;;;;5057180;28;20518;-82
2023/04/08 08:24:27;;;;;;;16.88;6.75;;;;;;;;;;5093761;28;20048;-82
2023/04/08 08:26:55;;;;;;;16.35;7.03;;;;;;;;;;5089262;28;20495;-82
2023/04/08 08:29:23;;;;;;;18.58;7.07;;;;;;;;;;5105186;28;20036;-82
2023/04/08 08:32:15;;;;;;;19.23;7.07;;;;;;;;;;5099625;28;20027;-82
2023/04/08 08:35:07;;;;;;;18.17;7.43;;;;;;;;;;5092552;28;20186;-82
2023/04/08 08:37:35;;;;;;;20.73;7.47;;;;;;;;;;5093227;28;20050;-81
2023/04/08 08:40:03;;;;;;;17.83;7.90;;;;;;;;;;5094238;28;20062;-81
2023/04/08 08:42:31;;;;;;;16.80;7.93;;;;;;;;;;5089510;28;20074;-82
2023/04/08 08:45:02;;;;;;;15.25;7.07;;;;;;;;;;5094026;28;20615;-81
2023/04/08 08:48:00;;;;;;;20.05;7.70;;;;;;;;;;5109070;28;20035;-82
2023/04/08 08:50:29;;;;;;;20.80;7.63;;;;;;;;;;5107540;27;20406;-83
2023/04/08 08:52:57;;;;;;;19.02;7.80;;;;;;;;;;5076456;28;20050;-82
2023/04/08 08:55:25;;;;;;;15.23;6.93;;;;;;;;;;5111085;28;20040;-82
2023/04/08 08:58:38;;;;;;;21.13;7.60;;;;;;;;;;5110022;27;20032;-82
2023/04/08 09:01:36;;;;;;;16.90;7.85;;;;;;;;;;5108883;27;20144;-81
2023/04/08 09:04:13;;;;;;;16.40;7.20;;;;;;;;;;5095013;28;20040;-82
2023/04/08 09:06:42;;;;;;;15.35;7.57;;;;;;;;;;5088320;28;20060;-81
2023/04/08 09:09:15;;;;;;;15.05;7.45;;;;;;;;;;5110685;28;20062;-82
2023/04/08 09:11:45;;;;;;;16.85;7.78;;;;;;;;;;5094857;28;20046;-81
2023/04/08 09:14:39;;;;;;;19.10;7.03;;;;;;;;;;5105750;27;20040;-82
2023/04/08 09:17:07;;;;;;;16.75;6.97;;;;;;;;;;5110620;28;20098;-82
2023/04/08 09:19:39;;;;;;;19.08;6.95;;;;;;;;;;5110852;28;20051;-81
2023/04/08 09:22:14;;;;;;;18.17;7.03;;;;;;;;;;5109898;27;20818;-82
2023/04/08 09:24:46;;;;;;;19.65;6.97;;;;;;;;;;5095546;28;20491;-82
2023/04/08 09:27:15;;;;;;;21.67;7.68;;;;;;;;;;5108452;28;20047;-82
2023/04/08 09:29:47;;;;;;;17.55;7.78;;;;;;;;;;5110987;28;20040;-82
2023/04/08 09:32:15;;;;;;;20.13;8.00;;;;;;;;;;5108572;27;20043;-82
2023/04/08 09:34:47;;;;;;;18.45;7.53;;;;;;;;;;5110993;27;20039;-82
2023/04/08 09:37:15;;;;;;;23.02;7.60;;;;;;;;;;5088673;28;20155;-82
2023/04/08 09:40:07;;;;;;;18.48;8.00;;;;;;;;;;5111948;27;20040;-82
2023/04/08 09:42:45;;;;;;;17.73;7.72;;;;;;;;;;5088709;28;20042;-81
2023/04/08 09:45:14;;;;;;;15.00;6.65;;;;;;;;;;5068270;28;20066;-82
2023/04/08 09:47:53;;;;;;;22.75;9.10;;;;;;;;;;5083593;28;21144;-81
2023/04/08 09:50:26;;;;;;;17.52;8.85;;;;;;;;;;5110000;27;20483;-82
2023/04/08 09:53:19;;;;;;;19.20;8.65;;;;;;;;;;5090114;28;20561;-81
2023/04/08 09:55:52;;;;;;;17.83;8.07;;;;;;;;;;5112274;27;20535;-81
2023/04/08 09:58:51;;;;;;;18.45;8.88;;;;;;;;;;5110891;27;20035;-82
2023/04/08 10:01:52;;;;;;;22.02;7.75;;;;;;;;;;5109367;27;20043;-82
2023/04/08 10:04:23;;;;;;;18.83;7.97;;;;;;;;;;5106488;27;20410;-82
2023/04/08 10:07:18;;;;;;;20.60;7.63;;;;;;;;;;5108005;27;20032;-82
2023/04/08 10:09:45;;;;;;;19.98;8.18;;;;;;;;;;5110226;27;20430;-82
2023/04/08 10:12:13;;;;;;;18.52;7.80;;;;;;;;;;5083504;27;20050;-82
2023/04/08 10:14:41;;;;;;;18.13;8.52;;;;;;;;;;5110992;28;20043;-81
2023/04/08 10:17:26;;;;;;;16.40;7.82;;;;;;;;;;5070296;27;20494;-82
2023/04/08 10:19:53;;;;;;;16.27;6.75;;;;;;;;;;5075642;27;20046;-82
2023/04/08 10:22:45;;;;;;;22.05;8.25;;;;;;;;;;5089682;27;20035;-81
2023/04/08 10:28:16;;;;;;;18.67;8.00;;;;;;;;;;5109307;27;20046;-81
2023/04/08 10:30:49;;;;;;;19.65;7.78;;;;;;;;;;5110223;27;20035;-82
2023/04/08 10:33:43;;;;;;;20.00;8.00;;;;;;;;;;5107360;27;20579;-81
2023/04/08 10:36:13;;;;;;;20.73;9.48;;;;;;;;;;5107717;28;20042;-82
2023/04/08 10:39:05;;;;;;;20.92;9.77;;;;;;;;;;5094379;28;20023;-82
2023/04/08 10:41:43;;;;;;;21.60;10.48;;;;;;;;;;5083784;28;20035;-82
2023/04/08 10:44:18;;;;;;;23.65;9.63;;;;;;;;;;5088633;28;20101;-82
2023/04/08 10:47:11;;;;;;;23.30;9.98;;;;;;;;;;5095024;28;20036;-82
2023/04/08 10:49:41;;;;;;;25.65;10.75;;;;;;;;;;5090830;28;20098;-82
2023/04/08 10:52:14;;;;;;;26.65;10.52;;;;;;;;;;5107488;28;20048;-82
2023/04/08 10:54:47;;;;;;;28.02;11.40;;;;;;;;;;5098372;28;20036;-82
2023/04/08 10:57:25;;;;;;;23.67;10.95;;;;;;;;;;5098689;27;20427;-81
2023/04/08 10:59:58;;;;;;;25.35;12.20;;;;;;;;;;5082518;27;20115;-81
2023/04/08 11:02:31;;;;;;;30.98;12.43;;;;;;;;;;5088054;28;20182;-81
2023/04/08 11:04:59;;;;;;;24.05;11.05;;;;;;;;;;5091052;28;20043;-81
2023/04/08 11:07:27;;;;;;;24.85;10.52;;;;;;;;;;5071177;28;20036;-81
2023/04/08 11:10:02;;;;;;;21.15;9.73;;;;;;;;;;5088583;28;20104;-81
2023/04/08 11:12:31;;;;;;;24.20;9.98;;;;;;;;;;5106149;27;20055;-81
2023/04/08 11:15:25;;;;;;;19.38;9.07;;;;;;;;;;5104213;28;20035;-81
2023/04/08 11:17:53;;;;;;;21.63;9.38;;;;;;;;;;5070420;28;20036;-81
2023/04/08 11:20:21;;;;;;;21.48;8.65;;;;;;;;;;5062455;28;20581;-81
2023/04/08 11:22:49;;;;;;;25.23;9.18;;;;;;;;;;5104161;28;20130;-81
2023/04/08 11:25:17;;;;;;;20.42;9.07;;;;;;;;;;5085393;28;20039;-81
2023/04/08 11:27:46;;;;;;;19.75;9.65;;;;;;;;;;5083281;28;20842;-81
2023/04/08 11:30:13;;;;;;;20.40;8.90;;;;;;;;;;5105712;28;20071;-81
2023/04/08 11:32:41;;;;;;;17.80;8.80;;;;;;;;;;5088848;28;20040;-82
2023/04/08 11:35:09;;;;;;;18.98;8.82;;;;;;;;;;5096747;28;20035;-81
2023/04/08 11:37:39;;;;;;;26.90;8.57;;;;;;;;;;5083176;28;20563;-81
2023/04/08 11:40:11;;;;;;;21.90;9.10;;;;;;;;;;5107698;28;20511;-81
2023/04/08 11:42:39;;;;;;;17.88;8.32;;;;;;;;;;5105906;28;20048;-81
2023/04/08 11:45:15;;;;;;;23.00;9.35;;;;;;;;;;5086979;28;20096;-81
2023/04/08 11:47:43;;;;;;;19.35;8.77;;;;;;;;;;5107431;28;20640;-81
2023/04/08 11:50:11;;;;;;;17.63;8.98;;;;;;;;;;5107097;28;20047;-81
2023/04/08 11:53:18;;;;;;;21.70;7.70;;;;;;;;;;5095099;28;20055;-81
2023/04/08 11:55:47;;;;;;;23.27;8.80;;;;;;;;;;5108737;28;20069;-81
2023/04/08 11:58:15;;;;;;;19.13;8.32;;;;;;;;;;5104449;28;20040;-82
2023/04/08 12:00:44;;;;;;;18.02;8.85;;;;;;;;;;5085701;28;20560;-81
2023/04/08 12:03:12;;;;;;;19.92;9.00;;;;;;;;;;5105678;28;20127;-81
2023/04/08 12:05:47;;;;;;;19.10;8.07;;;;;;;;;;5107131;27;20027;-82
2023/04/08 12:08:15;;;;;;;20.23;8.82;;;;;;;;;;5109433;27;20134;-81
2023/04/08 12:10:43;;;;;;;17.65;8.68;;;;;;;;;;5090176;28;20047;-81
2023/04/08 12:13:15;;;;;;;23.52;9.65;;;;;;;;;;5089148;27;20054;-81
2023/04/08 12:15:43;;;;;;;22.65;10.63;;;;;;;;;;5088430;28;20620;-82
2023/04/08 12:18:36;;;;;;;23.13;11.00;;;;;;;;;;5111750;27;20035;-82
2023/04/08 12:21:05;;;;;;;24.58;11.00;;;;;;;;;;5095911;28;20560;-82
2023/04/08 12:23:57;;;;;;;26.48;9.95;;;;;;;;;;5107954;28;20035;-82
2023/04/08 12:26:49;;;;;;;21.25;9.35;;;;;;;;;;5095587;28;20475;-82
2023/04/08 12:29:17;;;;;;;24.52;9.85;;;;;;;;;;5112279;28;20050;-82
2023/04/08 12:31:45;;;;;;;19.13;8.77;;;;;;;;;;5092391;28;20035;-82
2023/04/08 12:34:17;;;;;;;19.55;9.75;;;;;;;;;;5085653;28;20047;-82
2023/04/08 12:36:50;;;;;;;18.70;9.27;;;;;;;;;;5089268;28;20069;-82
2023/04/08 12:39:17;;;;;;;16.65;8.07;;;;;;;;;;5093496;28;20066;-82
2023/04/08 12:41:45;;;;;;;17.13;8.68;;;;;;;;;;5109869;28;20122;-82
2023/04/08 12:44:37;;;;;;;19.80;8.80;;;;;;;;;;5094896;28;20027;-82
2023/04/08 12:47:05;;;;;;;18.30;8.60;;;;;;;;;;5109973;28;20073;-82
2023/04/08 12:49:37;;;;;;;18.58;9.48;;;;;;;;;;5102116;28;20039;-82
2023/04/08 12:52:17;;;;;;;25.70;10.02;;;;;;;;;;5097203;28;20039;-82
2023/04/08 12:55:09;;;;;;;12.05;6.63;;;;;;;;;;5111841;27;20050;-82
2023/04/08 12:57:37;;;;;;;24.50;10.80;;;;;;;;;;5078116;28;20040;-82
2023/04/08 13:00:05;;;;;;;18.60;8.75;;;;;;;;;;5075471;28;20495;-82
2023/04/08 13:02:33;;;;;;;18.55;9.48;;;;;;;;;;5090911;28;20109;-82
2023/04/08 13:05:01;;;;;;;19.50;9.80;;;;;;;;;;5108265;27;20100;-83
2023/04/08 13:07:34;;;;;;;20.73;9.48;;;;;;;;;;5108674;27;20035;-82
2023/04/08 13:10:02;;;;;;;20.67;9.75;;;;;;;;;;5089085;27;20044;-82
2023/04/08 13:12:31;;;;;;;17.33;8.82;;;;;;;;;;5092497;28;20791;-84
2023/04/08 13:15:11;;;;;;;19.88;9.85;;;;;;;;;;5109881;27;20043;-83
2023/04/08 13:17:39;;;;;;;16.80;9.25;;;;;;;;;;5109092;28;20028;-83
2023/04/08 13:20:33;;;;;;;22.42;9.82;;;;;;;;;;5097162;28;20395;-82
2023/04/08 13:23:01;;;;;;;22.42;10.18;;;;;;;;;;5105724;27;20046;-83
2023/04/08 13:25:29;;;;;;;21.40;9.85;;;;;;;;;;5109032;28;20032;-83
2023/04/08 13:28:21;;;;;;;22.02;9.80;;;;;;;;;;5108024;27;20032;-81
2023/04/08 13:30:59;;;;;;;20.88;10.15;;;;;;;;;;5108984;27;20111;-81
2023/04/08 13:33:27;;;;;;;28.48;12.25;;;;;;;;;;5110960;28;20122;-82
2023/04/08 13:35:59;;;;;;;19.05;9.32;;;;;;;;;;5108469;28;20032;-82
2023/04/08 13:38:51;;;;;;;17.80;9.05;;;;;;;;;;5108636;28;20104;-82
2023/04/08 13:41:24;;;;;;;16.10;8.73;;;;;;;;;;5108298;28;20059;-82
2023/04/08 13:43:51;;;;;;;29.40;12.05;;;;;;;;;;5110427;27;20048;-82
2023/04/08 13:46:19;;;;;;;22.02;9.48;;;;;;;;;;5088900;28;20062;-82
2023/04/08 13:48:47;;;;;;;28.83;11.88;;;;;;;;;;5090238;28;20126;-82
2023/04/08 13:51:15;;;;;;;22.45;11.30;;;;;;;;;;5107491;27;20063;-82
2023/04/08 13:53:43;;;;;;;31.67;15.18;;;;;;;;;;5108801;28;20118;-81
2023/04/08 13:56:11;;;;;;;35.00;18.00;;;;;;;;;;5092559;28;20100;-81
2023/04/08 13:58:39;;;;;;;35.40;15.82;;;;;;;;;;5089612;28;20450;-81
2023/04/08 14:01:07;;;;;;;25.52;12.18;;;;;;;;;;5108375;28;20035;-82
2023/04/08 14:03:35;;;;;;;21.63;11.63;;;;;;;;;;5109617;27;20120;-82
2023/04/08 14:06:03;;;;;;;26.88;13.15;;;;;;;;;;5087286;28;20526;-81
2023/04/08 14:08:31;;;;;;;29.63;14.80;;;;;;;;;;5087882;28;20031;-82
2023/04/08 14:11:03;;;;;;;26.77;12.88;;;;;;;;;;5107409;28;20039;-82
2023/04/08 14:13:35;;;;;;;26.02;12.90;;;;;;;;;;5108227;28;20514;-82
2023/04/08 14:16:03;;;;;;;28.42;13.88;;;;;;;;;;5105725;28;20059;-82
2023/04/08 14:18:31;;;;;;;21.10;10.45;;;;;;;;;;5091706;28;20039;-82
2023/04/08 14:20:59;;;;;;;23.00;12.05;;;;;;;;;;5107741;28;20039;-81
2023/04/08 14:23:51;;;;;;;26.40;12.55;;;;;;;;;;5086313;28;20105;-82
2023/04/08 14:26:45;;;;;;;26.88;12.07;;;;;;;;;;5096273;28;20063;-82
2023/04/08 14:29:17;;;;;;;27.23;12.10;;;;;;;;;;5108715;28;20458;-82
2023/04/08 14:31:45;;;;;;;25.05;11.90;;;;;;;;;;5110114;28;20046;-82
2023/04/08 14:34:13;;;;;;;21.77;10.10;;;;;;;;;;5087274;27;20067;-82
2023/04/08 14:36:41;;;;;;;17.48;9.82;;;;;;;;;;5107930;27;20570;-82
2023/04/08 14:39:10;;;;;;;20.67;9.60;;;;;;;;;;5104290;28;20046;-81
2023/04/08 14:41:39;;;;;;;22.80;10.70;;;;;;;;;;5105895;28;20170;-81
2023/04/08 14:44:07;;;;;;;20.17;10.05;;;;;;;;;;5106908;28;20039;-81
2023/04/08 14:46:39;;;;;;;20.98;10.43;;;;;;;;;;5090745;28;20046;-81
2023/04/08 14:49:07;;;;;;;25.20;12.70;;;;;;;;;;5106004;28;20043;-81
2023/04/08 14:51:36;;;;;;;25.23;12.75;;;;;;;;;;5108081;28;20126;-81
2023/04/08 14:54:05;;;;;;;27.00;13.48;;;;;;;;;;5107172;27;20036;-81
2023/04/08 14:56:33;;;;;;;25.92;13.32;;;;;;;;;;5106001;28;20066;-81
2023/04/08 14:59:01;;;;;;;26.77;12.98;;;;;;;;;;5105109;28;20047;-82
2023/04/08 15:01:31;;;;;;;30.10;13.98;;;;;;;;;;5104472;28;20395;-81
2023/04/08 15:04:03;;;;;;;26.88;14.20;;;;;;;;;;5107726;28;20522;-81
2023/04/08 15:06:31;;;;;;;24.90;14.30;;;;;;;;;;5099490;27;20043;-81
2023/04/08 15:08:59;;;;;;;24.08;12.80;;;;;;;;;;5083911;28;20028;-81
2023/04/08 15:11:27;;;;;;;26.95;12.90;;;;;;;;;;5106123;28;20051;-81
2023/04/08 15:13:55;;;;;;;27.27;13.25;;;;;;;;;;5090907;28;20062;-82
2023/04/08 15:16:27;;;;;;;26.10;13.18;;;;;;;;;;5109184;28;20126;-81